sensor_id;sensor_type;location;lat;lon;timestamp;P1;durP1;ratioP1;P2;durP2;ratioP2
25129;SDS011;13308;50.860;13.664;2023-04-23T04:22:59;2.65;;;2.45;;
25129;SDS011;13308;50.860;13.664;2023-04-23T04:25:25;3.05;;;2.80;;
25129;SDS011;13308;50.860;13.664;2023-04-23T04:27:52;2.67;;;2.47;;
25129;SDS011;13308;50.860;13.664;2023-04-23T04:30:18;3.28;;;2.97;;
25129;SDS011;13308;50.860;13.664;2023-04-23T04:32:43;2.97;;;2.67;;
25129;SDS011;13308;50.860;13.664;2023-04-23T04:35:09;2.85;;;2.60;;
25129;SDS011;13308;50.860;13.664;2023-04-23T04:37:36;2.67;;;2.47;;
25129;SDS011;13308;50.860;13.664;2023-04-23T04:40:02;2.50;;;2.30;;
25129;SDS011;13308;50.860;13.664;2023-04-23T04:42:29;2.83;;;2.60;;
25129;SDS011;13308;50.860;13.664;2023-04-23T04:44:55;2.45;;;2.25;;
25129;SDS011;13308;50.860;13.664;2023-04-23T04:47:23;2.45;;;2.25;;
25129;SDS011;13308;50.860;13.664;2023-04-23T04:49:49;2.47;;;2.15;;
25129;SDS011;13308;50.860;13.664;2023-04-23T04:52:14;3.08;;;2.33;;
25129;SDS011;13308;50.860;13.664;2023-04-23T04:54:40;2.85;;;2.25;;
25129;SDS011;13308;50.860;13.664;2023-04-23T04:57:06;3.22;;;2.88;;
25129;SDS011;13308;50.860;13.664;2023-04-23T04:59:31;1.90;;;1.80;;
25129;SDS011;13308;50.860;13.664;2023-04-23T05:01:56;2.38;;;2.17;;
25129;SDS011;13308;50.860;13.664;2023-04-23T05:04:22;2.30;;;2.10;;
25129;SDS011;13308;50.860;13.664;2023-04-23T05:06:47;2.08;;;1.98;;
25129;SDS011;13308;50.860;13.664;2023-04-23T05:09:12;2.28;;;2.08;;
25129;SDS011;13308;50.860;13.664;2023-04-23T05:11:38;2.33;;;2.13;;
25129;SDS011;13308;50.860;13.664;2023-04-23T05:14:05;3.05;;;2.63;;
25129;SDS011;13308;50.860;13.664;2023-04-23T05:16:30;2.22;;;2.03;;
25129;SDS011;13308;50.860;13.664;2023-04-23T05:18:55;2.53;;;2.30;;
25129;SDS011;13308;50.860;13.664;2023-04-23T05:21:21;2.13;;;1.92;;
25129;SDS011;13308;50.860;13.664;2023-04-23T05:23:46;2.60;;;2.38;;
25129;SDS011;13308;50.860;13.664;2023-04-23T05:26:12;2.40;;;1.77;;
25129;SDS011;13308;50.860;13.664;2023-04-23T05:28:37;2.50;;;2.25;;
25129;SDS011;13308;50.860;13.664;2023-04-23T05:31:03;2.55;;;2.35;;
25129;SDS011;13308;50.860;13.664;2023-04-23T05:33:28;5.05;;;3.35;;
25129;SDS011;13308;50.860;13.664;2023-04-23T05:35:53;5.38;;;2.90;;
25129;SDS011;13308;50.860;13.664;2023-04-23T05:38:19;3.40;;;3.10;;
25129;SDS011;13308;50.860;13.664;2023-04-23T05:40:44;5.30;;;2.25;;
25129;SDS011;13308;50.860;13.664;2023-04-23T05:43:10;2.40;;;2.20;;
25129;SDS011;13308;50.860;13.664;2023-04-23T05:45:36;3.50;;;2.60;;
25129;SDS011;13308;50.860;13.664;2023-04-23T05:48:01;4.03;;;2.55;;
25129;SDS011;13308;50.860;13.664;2023-04-23T05:50:27;2.70;;;2.50;;
25129;SDS011;13308;50.860;13.664;2023-04-23T05:52:52;3.47;;;2.42;;
25129;SDS011;13308;50.860;13.664;2023-04-23T05:55:18;5.07;;;3.08;;
25129;SDS011;13308;50.860;13.664;2023-04-23T05:57:44;3.38;;;2.67;;
25129;SDS011;13308;50.860;13.664;2023-04-23T06:00:10;2.78;;;2.58;;
25129;SDS011;13308;50.860;13.664;2023-04-23T06:02:39;3.60;;;2.60;;
25129;SDS011;13308;50.860;13.664;2023-04-23T06:05:05;3.13;;;2.83;;
25129;SDS011;13308;50.860;13.664;2023-04-23T06:07:31;4.15;;;2.72;;
25129;SDS011;13308;50.860;13.664;2023-04-23T06:09:57;3.53;;;3.15;;
25129;SDS011;13308;50.860;13.664;2023-04-23T06:12:22;3.30;;;3.00;;
25129;SDS011;13308;50.860;13.664;2023-04-23T06:14:48;3.15;;;2.85;;
25129;SDS011;13308;50.860;13.664;2023-04-23T06:17:13;3.53;;;3.00;;
25129;SDS011;13308;50.860;13.664;2023-04-23T06:19:38;3.88;;;3.20;;
25129;SDS011;13308;50.860;13.664;2023-04-23T06:22:05;3.33;;;3.03;;
25129;SDS011;13308;50.860;13.664;2023-04-23T06:24:30;4.35;;;3.50;;
25129;SDS011;13308;50.860;13.664;2023-04-23T06:26:55;4.10;;;3.70;;
25129;SDS011;13308;50.860;13.664;2023-04-23T06:29:22;6.05;;;3.33;;
25129;SDS011;13308;50.860;13.664;2023-04-23T06:32:00;5.55;;;3.65;;
25129;SDS011;13308;50.860;13.664;2023-04-23T06:34:27;3.10;;;2.80;;
25129;SDS011;13308;50.860;13.664;2023-04-23T06:36:52;3.05;;;2.75;;
25129;SDS011;13308;50.860;13.664;2023-04-23T06:39:18;2.53;;;2.33;;
25129;SDS011;13308;50.860;13.664;2023-04-23T06:41:43;3.00;;;2.80;;
25129;SDS011;13308;50.860;13.664;2023-04-23T06:44:20;3.45;;;2.10;;
25129;SDS011;13308;50.860;13.664;2023-04-23T06:46:49;3.45;;;2.75;;
25129;SDS011;13308;50.860;13.664;2023-04-23T06:49:15;4.25;;;2.30;;
25129;SDS011;13308;50.860;13.664;2023-04-23T06:51:40;4.55;;;2.72;;
25129;SDS011;13308;50.860;13.664;2023-04-23T06:54:06;3.28;;;2.97;;
25129;SDS011;13308;50.860;13.664;2023-04-23T06:56:31;3.55;;;2.53;;
25129;SDS011;13308;50.860;13.664;2023-04-23T06:58:56;4.70;;;2.80;;
25129;SDS011;13308;50.860;13.664;2023-04-23T07:01:22;2.75;;;2.55;;
25129;SDS011;13308;50.860;13.664;2023-04-23T07:03:47;4.00;;;2.85;;
25129;SDS011;13308;50.860;13.664;2023-04-23T07:06:15;2.72;;;2.53;;
25129;SDS011;13308;50.860;13.664;2023-04-23T07:08:41;4.22;;;2.70;;
25129;SDS011;13308;50.860;13.664;2023-04-23T07:11:07;3.17;;;2.50;;
25129;SDS011;13308;50.860;13.664;2023-04-23T07:13:32;4.75;;;2.95;;
25129;SDS011;13308;50.860;13.664;2023-04-23T07:15:58;2.80;;;2.60;;
25129;SDS011;13308;50.860;13.664;2023-04-23T07:18:23;2.83;;;2.50;;
25129;SDS011;13308;50.860;13.664;2023-04-23T07:20:49;2.78;;;2.58;;
25129;SDS011;13308;50.860;13.664;2023-04-23T07:23:14;5.63;;;2.70;;
25129;SDS011;13308;50.860;13.664;2023-04-23T07:25:39;2.53;;;2.33;;
25129;SDS011;13308;50.860;13.664;2023-04-23T07:28:05;3.08;;;2.53;;
25129;SDS011;13308;50.860;13.664;2023-04-23T07:30:30;2.90;;;2.63;;
25129;SDS011;13308;50.860;13.664;2023-04-23T07:32:56;3.20;;;2.90;;
25129;SDS011;13308;50.860;13.664;2023-04-23T07:35:21;5.03;;;2.72;;
25129;SDS011;13308;50.860;13.664;2023-04-23T07:37:46;2.92;;;2.70;;
25129;SDS011;13308;50.860;13.664;2023-04-23T07:40:17;3.67;;;2.72;;
25129;SDS011;13308;50.860;13.664;2023-04-23T07:42:42;4.43;;;2.38;;
25129;SDS011;13308;50.860;13.664;2023-04-23T07:45:08;3.42;;;2.97;;
25129;SDS011;13308;50.860;13.664;2023-04-23T07:47:34;3.42;;;3.13;;
25129;SDS011;13308;50.860;13.664;2023-04-23T07:49:59;2.78;;;2.55;;
25129;SDS011;13308;50.860;13.664;2023-04-23T07:52:25;3.63;;;2.90;;
25129;SDS011;13308;50.860;13.664;2023-04-23T07:54:50;2.60;;;2.38;;
25129;SDS011;13308;50.860;13.664;2023-04-23T07:57:16;3.47;;;2.30;;
25129;SDS011;13308;50.860;13.664;2023-04-23T07:59:41;3.10;;;2.40;;
25129;SDS011;13308;50.860;13.664;2023-04-23T08:02:07;2.97;;;2.60;;
25129;SDS011;13308;50.860;13.664;2023-04-23T08:04:32;2.33;;;2.13;;
25129;SDS011;13308;50.860;13.664;2023-04-23T08:06:57;2.30;;;2.10;;
25129;SDS011;13308;50.860;13.664;2023-04-23T08:09:23;2.33;;;2.13;;
25129;SDS011;13308;50.860;13.664;2023-04-23T08:11:48;2.28;;;2.08;;
25129;SDS011;13308;50.860;13.664;2023-04-23T08:14:14;2.45;;;2.13;;
25129;SDS011;13308;50.860;13.664;2023-04-23T08:16:39;2.28;;;2.08;;
25129;SDS011;13308;50.860;13.664;2023-04-23T08:19:05;3.05;;;1.65;;
25129;SDS011;13308;50.860;13.664;2023-04-23T08:21:30;2.00;;;1.80;;
25129;SDS011;13308;50.860;13.664;2023-04-23T08:23:56;2.28;;;2.08;;
25129;SDS011;13308;50.860;13.664;2023-04-23T08:26:22;2.17;;;1.92;;
25129;SDS011;13308;50.860;13.664;2023-04-23T08:28:47;2.05;;;1.85;;
25129;SDS011;13308;50.860;13.664;2023-04-23T08:31:13;2.58;;;1.90;;
25129;SDS011;13308;50.860;13.664;2023-04-23T08:33:38;1.70;;;1.58;;
25129;SDS011;13308;50.860;13.664;2023-04-23T08:36:04;2.30;;;2.08;;
25129;SDS011;13308;50.860;13.664;2023-04-23T08:38:29;1.58;;;1.48;;
25129;SDS011;13308;50.860;13.664;2023-04-23T08:40:55;1.92;;;1.83;;
25129;SDS011;13308;50.860;13.664;2023-04-23T08:43:25;6.07;;;2.08;;
25129;SDS011;13308;50.860;13.664;2023-04-23T08:45:56;3.35;;;1.95;;
25129;SDS011;13308;50.860;13.664;2023-04-23T08:48:28;2.10;;;1.90;;
25129;SDS011;13308;50.860;13.664;2023-04-23T08:50:54;2.00;;;1.83;;
25129;SDS011;13308;50.860;13.664;2023-04-23T08:53:22;2.38;;;2.17;;
25129;SDS011;13308;50.860;13.664;2023-04-23T08:55:51;3.03;;;2.50;;
25129;SDS011;13308;50.860;13.664;2023-04-23T08:58:19;2.53;;;2.25;;
25129;SDS011;13308;50.860;13.664;2023-04-23T09:00:45;2.17;;;2.05;;
25129;SDS011;13308;50.860;13.664;2023-04-23T09:03:12;1.80;;;1.70;;
25129;SDS011;13308;50.860;13.664;2023-04-23T09:05:40;2.45;;;2.25;;
25129;SDS011;13308;50.860;13.664;2023-04-23T09:08:06;9.18;;;6.22;;
25129;SDS011;13308;50.860;13.664;2023-04-23T09:10:32;2.40;;;1.85;;
25129;SDS011;13308;50.860;13.664;2023-04-23T09:13:01;1.70;;;1.60;;
25129;SDS011;13308;50.860;13.664;2023-04-23T09:15:27;2.53;;;2.20;;
25129;SDS011;13308;50.860;13.664;2023-04-23T09:17:52;2.28;;;2.08;;
25129;SDS011;13308;50.860;13.664;2023-04-23T09:20:17;5.95;;;4.97;;
25129;SDS011;13308;50.860;13.664;2023-04-23T09:22:46;24.35;;;17.70;;
25129;SDS011;13308;50.860;13.664;2023-04-23T09:25:17;2.58;;;2.38;;
25129;SDS011;13308;50.860;13.664;2023-04-23T09:27:43;9.45;;;7.22;;
25129;SDS011;13308;50.860;13.664;2023-04-23T09:30:10;2.35;;;2.08;;
25129;SDS011;13308;50.860;13.664;2023-04-23T09:32:37;2.17;;;1.98;;
25129;SDS011;13308;50.860;13.664;2023-04-23T09:35:04;2.67;;;2.40;;
25129;SDS011;13308;50.860;13.664;2023-04-23T09:37:32;5.43;;;4.75;;
25129;SDS011;13308;50.860;13.664;2023-04-23T09:39:58;4.05;;;3.67;;
25129;SDS011;13308;50.860;13.664;2023-04-23T09:42:27;1.95;;;1.85;;
25129;SDS011;13308;50.860;13.664;2023-04-23T09:44:56;2.30;;;1.42;;
25129;SDS011;13308;50.860;13.664;2023-04-23T09:47:24;1.02;;;0.93;;
25129;SDS011;13308;50.860;13.664;2023-04-23T09:49:50;1.65;;;0.90;;
25129;SDS011;13308;50.860;13.664;2023-04-23T09:52:16;5.68;;;5.15;;
25129;SDS011;13308;50.860;13.664;2023-04-23T09:54:42;1.33;;;1.20;;
25129;SDS011;13308;50.860;13.664;2023-04-23T09:57:36;20.60;;;11.27;;
25129;SDS011;13308;50.860;13.664;2023-04-23T10:00:12;34.50;;;19.20;;
25129;SDS011;13308;50.860;13.664;2023-04-23T10:02:46;1.13;;;1.02;;
25129;SDS011;13308;50.860;13.664;2023-04-23T10:05:16;0.90;;;0.90;;
25129;SDS011;13308;50.860;13.664;2023-04-23T10:07:43;3.80;;;3.35;;
25129;SDS011;13308;50.860;13.664;2023-04-23T10:10:18;9.13;;;7.13;;
25129;SDS011;13308;50.860;13.664;2023-04-23T10:12:44;2.40;;;1.40;;
25129;SDS011;13308;50.860;13.664;2023-04-23T10:15:10;1.00;;;1.00;;
25129;SDS011;13308;50.860;13.664;2023-04-23T10:17:36;1.58;;;1.48;;
25129;SDS011;13308;50.860;13.664;2023-04-23T10:20:03;1.33;;;1.02;;
25129;SDS011;13308;50.860;13.664;2023-04-23T10:22:31;1.70;;;1.60;;
25129;SDS011;13308;50.860;13.664;2023-04-23T10:24:59;2.55;;;2.28;;
25129;SDS011;13308;50.860;13.664;2023-04-23T10:27:28;2.72;;;2.53;;
25129;SDS011;13308;50.860;13.664;2023-04-23T10:29:56;2.10;;;1.90;;
25129;SDS011;13308;50.860;13.664;2023-04-23T10:32:22;2.38;;;2.17;;
25129;SDS011;13308;50.860;13.664;2023-04-23T10:34:48;2.40;;;2.20;;
25129;SDS011;13308;50.860;13.664;2023-04-23T10:37:13;1.50;;;1.40;;
25129;SDS011;13308;50.860;13.664;2023-04-23T10:39:41;3.03;;;2.33;;
25129;SDS011;13308;50.860;13.664;2023-04-23T10:42:08;4.40;;;3.70;;
25129;SDS011;13308;50.860;13.664;2023-04-23T10:44:37;3.13;;;2.03;;
25129;SDS011;13308;50.860;13.664;2023-04-23T10:47:06;5.22;;;4.60;;
25129;SDS011;13308;50.860;13.664;2023-04-23T10:49:39;2.58;;;2.20;;
25129;SDS011;13308;50.860;13.664;2023-04-23T10:52:08;2.20;;;1.75;;
25129;SDS011;13308;50.860;13.664;2023-04-23T10:54:39;7.45;;;5.32;;
25129;SDS011;13308;50.860;13.664;2023-04-23T10:57:06;5.50;;;4.40;;
25129;SDS011;13308;50.860;13.664;2023-04-23T10:59:33;3.17;;;2.88;;
25129;SDS011;13308;50.860;13.664;2023-04-23T11:04:32;3.70;;;2.40;;
25129;SDS011;13308;50.860;13.664;2023-04-23T11:07:05;2.90;;;2.35;;
25129;SDS011;13308;50.860;13.664;2023-04-23T11:09:36;2.17;;;1.70;;
25129;SDS011;13308;50.860;13.664;2023-04-23T11:12:04;1.77;;;1.60;;
25129;SDS011;13308;50.860;13.664;2023-04-23T11:14:40;3.42;;;1.40;;
25129;SDS011;13308;50.860;13.664;2023-04-23T11:17:10;3.38;;;1.42;;
25129;SDS011;13308;50.860;13.664;2023-04-23T11:19:37;2.67;;;2.45;;
25129;SDS011;13308;50.860;13.664;2023-04-23T11:22:16;1.23;;;1.13;;
25129;SDS011;13308;50.860;13.664;2023-04-23T11:24:43;3.95;;;2.65;;
25129;SDS011;13308;50.860;13.664;2023-04-23T11:27:11;3.03;;;2.72;;
25129;SDS011;13308;50.860;13.664;2023-04-23T11:29:39;1.67;;;1.58;;
25129;SDS011;13308;50.860;13.664;2023-04-23T11:32:06;2.25;;;1.23;;
25129;SDS011;13308;50.860;13.664;2023-04-23T11:34:35;1.52;;;1.42;;
25129;SDS011;13308;50.860;13.664;2023-04-23T11:37:02;1.58;;;1.48;;
25129;SDS011;13308;50.860;13.664;2023-04-23T11:39:28;3.90;;;1.45;;
25129;SDS011;13308;50.860;13.664;2023-04-23T11:41:54;1.33;;;1.17;;
25129;SDS011;13308;50.860;13.664;2023-04-23T11:44:21;1.63;;;1.52;;
25129;SDS011;13308;50.860;13.664;2023-04-23T11:46:46;3.90;;;1.42;;
25129;SDS011;13308;50.860;13.664;2023-04-23T11:49:13;1.27;;;1.17;;
25129;SDS011;13308;50.860;13.664;2023-04-23T11:51:41;1.63;;;1.08;;
25129;SDS011;13308;50.860;13.664;2023-04-23T11:54:08;1.60;;;1.50;;
25129;SDS011;13308;50.860;13.664;2023-04-23T11:56:34;1.38;;;1.27;;
25129;SDS011;13308;50.860;13.664;2023-04-23T11:59:01;2.58;;;1.38;;
25129;SDS011;13308;50.860;13.664;2023-04-23T12:04:13;1.90;;;1.55;;
25129;SDS011;13308;50.860;13.664;2023-04-23T12:06:41;1.40;;;1.30;;
25129;SDS011;13308;50.860;13.664;2023-04-23T12:09:08;3.40;;;1.65;;
25129;SDS011;13308;50.860;13.664;2023-04-23T12:11:36;1.83;;;1.73;;
25129;SDS011;13308;50.860;13.664;2023-04-23T12:14:01;1.73;;;1.60;;
25129;SDS011;13308;50.860;13.664;2023-04-23T12:16:33;2.88;;;1.77;;
25129;SDS011;13308;50.860;13.664;2023-04-23T12:19:00;1.58;;;1.48;;
25129;SDS011;13308;50.860;13.664;2023-04-23T12:21:25;2.88;;;1.60;;
25129;SDS011;13308;50.860;13.664;2023-04-23T12:23:52;2.05;;;1.85;;
25129;SDS011;13308;50.860;13.664;2023-04-23T12:26:18;2.50;;;2.05;;
25129;SDS011;13308;50.860;13.664;2023-04-23T12:28:46;1.70;;;1.60;;
25129;SDS011;13308;50.860;13.664;2023-04-23T12:31:21;1.80;;;1.70;;
25129;SDS011;13308;50.860;13.664;2023-04-23T12:34:01;1.63;;;1.52;;
25129;SDS011;13308;50.860;13.664;2023-04-23T12:36:36;1.80;;;1.40;;
25129;SDS011;13308;50.860;13.664;2023-04-23T12:39:20;1.33;;;1.23;;
25129;SDS011;13308;50.860;13.664;2023-04-23T12:41:58;1.10;;;1.00;;
25129;SDS011;13308;50.860;13.664;2023-04-23T12:44:26;1.40;;;1.30;;
25129;SDS011;13308;50.860;13.664;2023-04-23T12:46:56;1.30;;;1.20;;
25129;SDS011;13308;50.860;13.664;2023-04-23T12:49:22;1.30;;;1.20;;
25129;SDS011;13308;50.860;13.664;2023-04-23T12:51:48;3.28;;;1.17;;
25129;SDS011;13308;50.860;13.664;2023-04-23T12:54:13;2.05;;;1.85;;
25129;SDS011;13308;50.860;13.664;2023-04-23T12:56:39;1.70;;;1.60;;
25129;SDS011;13308;50.860;13.664;2023-04-23T12:59:04;1.85;;;1.60;;
25129;SDS011;13308;50.860;13.664;2023-04-23T13:01:30;4.47;;;1.70;;
25129;SDS011;13308;50.860;13.664;2023-04-23T13:03:56;2.33;;;2.13;;
25129;SDS011;13308;50.860;13.664;2023-04-23T13:06:22;2.30;;;2.08;;
25129;SDS011;13308;50.860;13.664;2023-04-23T13:08:47;3.35;;;3.05;;
25129;SDS011;13308;50.860;13.664;2023-04-23T13:11:12;2.40;;;2.20;;
25129;SDS011;13308;50.860;13.664;2023-04-23T13:13:38;2.83;;;2.58;;
25129;SDS011;13308;50.860;13.664;2023-04-23T13:16:03;2.40;;;2.20;;
25129;SDS011;13308;50.860;13.664;2023-04-23T13:18:29;3.08;;;2.42;;
25129;SDS011;13308;50.860;13.664;2023-04-23T13:20:54;2.15;;;2.03;;
25129;SDS011;13308;50.860;13.664;2023-04-23T13:23:20;2.88;;;2.67;;
25129;SDS011;13308;50.860;13.664;2023-04-23T13:25:45;6.85;;;5.18;;
25129;SDS011;13308;50.860;13.664;2023-04-23T13:28:11;4.50;;;4.07;;
25129;SDS011;13308;50.860;13.664;2023-04-23T13:30:36;8.15;;;6.50;;
25129;SDS011;13308;50.860;13.664;2023-04-23T13:33:01;5.90;;;5.30;;
25129;SDS011;13308;50.860;13.664;2023-04-23T13:35:27;4.72;;;2.83;;
25129;SDS011;13308;50.860;13.664;2023-04-23T13:37:52;2.88;;;2.65;;
25129;SDS011;13308;50.860;13.664;2023-04-23T13:40:17;2.85;;;2.65;;
25129;SDS011;13308;50.860;13.664;2023-04-23T13:42:43;2.97;;;2.78;;
25129;SDS011;13308;50.860;13.664;2023-04-23T13:45:08;3.63;;;3.30;;
25129;SDS011;13308;50.860;13.664;2023-04-23T13:47:34;2.90;;;2.55;;
25129;SDS011;13308;50.860;13.664;2023-04-23T13:49:59;2.65;;;2.45;;
25129;SDS011;13308;50.860;13.664;2023-04-23T13:52:30;3.13;;;2.92;;
25129;SDS011;13308;50.860;13.664;2023-04-23T13:54:56;3.05;;;2.58;;
25129;SDS011;13308;50.860;13.664;2023-04-23T13:57:24;3.40;;;3.10;;
25129;SDS011;13308;50.860;13.664;2023-04-23T13:59:50;3.30;;;3.00;;
25129;SDS011;13308;50.860;13.664;2023-04-23T14:02:15;3.55;;;3.00;;
25129;SDS011;13308;50.860;13.664;2023-04-23T14:04:41;3.22;;;2.92;;
25129;SDS011;13308;50.860;13.664;2023-04-23T14:07:06;3.10;;;2.90;;
25129;SDS011;13308;50.860;13.664;2023-04-23T14:09:31;3.05;;;2.75;;
25129;SDS011;13308;50.860;13.664;2023-04-23T14:11:57;5.50;;;3.15;;
25129;SDS011;13308;50.860;13.664;2023-04-23T14:14:22;3.40;;;3.10;;
25129;SDS011;13308;50.860;13.664;2023-04-23T14:16:47;3.30;;;3.00;;
25129;SDS011;13308;50.860;13.664;2023-04-23T14:19:13;3.92;;;3.63;;
25129;SDS011;13308;50.860;13.664;2023-04-23T14:21:38;3.30;;;3.00;;
25129;SDS011;13308;50.860;13.664;2023-04-23T14:24:08;3.40;;;3.10;;
25129;SDS011;13308;50.860;13.664;2023-04-23T14:26:40;2.85;;;2.65;;
25129;SDS011;13308;50.860;13.664;2023-04-23T14:29:23;3.25;;;2.92;;
25129;SDS011;13308;50.860;13.664;2023-04-23T14:31:54;3.38;;;3.08;;
25129;SDS011;13308;50.860;13.664;2023-04-23T14:34:20;4.20;;;3.80;;
25129;SDS011;13308;50.860;13.664;2023-04-23T14:36:46;3.90;;;3.60;;
25129;SDS011;13308;50.860;13.664;2023-04-23T14:39:13;3.90;;;3.60;;
25129;SDS011;13308;50.860;13.664;2023-04-23T14:41:39;3.63;;;3.33;;
25129;SDS011;13308;50.860;13.664;2023-04-23T14:44:04;4.32;;;3.80;;
25129;SDS011;13308;50.860;13.664;2023-04-23T14:46:30;4.35;;;3.97;;
25129;SDS011;13308;50.860;13.664;2023-04-23T14:48:55;4.63;;;4.22;;
25129;SDS011;13308;50.860;13.664;2023-04-23T14:51:21;4.78;;;4.45;;
25129;SDS011;13308;50.860;13.664;2023-04-23T14:53:46;4.47;;;4.10;;
25129;SDS011;13308;50.860;13.664;2023-04-23T14:56:11;5.70;;;4.55;;
25129;SDS011;13308;50.860;13.664;2023-04-23T14:58:37;4.63;;;4.15;;
25129;SDS011;13308;50.860;13.664;2023-04-23T15:01:02;4.95;;;4.55;;
25129;SDS011;13308;50.860;13.664;2023-04-23T15:03:28;5.03;;;4.53;;
25129;SDS011;13308;50.860;13.664;2023-04-23T15:05:53;5.20;;;4.80;;
25129;SDS011;13308;50.860;13.664;2023-04-23T15:08:19;4.63;;;4.32;;
25129;SDS011;13308;50.860;13.664;2023-04-23T15:10:44;5.47;;;4.97;;
25129;SDS011;13308;50.860;13.664;2023-04-23T15:18:09;6.35;;;5.82;;
25129;SDS011;13308;50.860;13.664;2023-04-23T15:20:35;5.47;;;5.07;;
25129;SDS011;13308;50.860;13.664;2023-04-23T15:23:00;6.07;;;5.57;;
25129;SDS011;13308;50.860;13.664;2023-04-23T15:25:26;5.95;;;5.40;;
25129;SDS011;13308;50.860;13.664;2023-04-23T15:27:51;5.82;;;5.32;;
25129;SDS011;13308;50.860;13.664;2023-04-23T15:30:22;4.50;;;4.20;;
25129;SDS011;13308;50.860;13.664;2023-04-23T15:32:51;5.22;;;4.82;;
25129;SDS011;13308;50.860;13.664;2023-04-23T15:35:20;5.22;;;4.80;;
25129;SDS011;13308;50.860;13.664;2023-04-23T15:37:46;5.13;;;4.72;;
25129;SDS011;13308;50.860;13.664;2023-04-23T15:40:12;5.20;;;4.80;;
25129;SDS011;13308;50.860;13.664;2023-04-23T15:42:37;5.47;;;5.00;;
25129;SDS011;13308;50.860;13.664;2023-04-23T15:45:05;6.20;;;5.70;;
25129;SDS011;13308;50.860;13.664;2023-04-23T15:47:32;6.63;;;5.85;;
25129;SDS011;13308;50.860;13.664;2023-04-23T15:49:58;5.63;;;5.13;;
25129;SDS011;13308;50.860;13.664;2023-04-23T15:52:23;6.43;;;5.93;;
25129;SDS011;13308;50.860;13.664;2023-04-23T15:54:48;7.80;;;5.97;;
25129;SDS011;13308;50.860;13.664;2023-04-23T15:57:14;5.40;;;5.00;;
25129;SDS011;13308;50.860;13.664;2023-04-23T15:59:39;6.15;;;5.38;;
25129;SDS011;13308;50.860;13.664;2023-04-23T16:02:05;5.90;;;5.40;;
25129;SDS011;13308;50.860;13.664;2023-04-23T16:04:30;5.22;;;4.72;;
25129;SDS011;13308;50.860;13.664;2023-04-23T16:06:55;8.38;;;5.05;;
25129;SDS011;13308;50.860;13.664;2023-04-23T16:09:21;7.32;;;5.57;;
25129;SDS011;13308;50.860;13.664;2023-04-23T16:11:46;9.68;;;5.50;;
25129;SDS011;13308;50.860;13.664;2023-04-23T16:14:11;7.38;;;5.63;;
25129;SDS011;13308;50.860;13.664;2023-04-23T16:16:37;6.70;;;6.10;;
25129;SDS011;13308;50.860;13.664;2023-04-23T16:19:02;6.43;;;5.78;;
25129;SDS011;13308;50.860;13.664;2023-04-23T16:21:28;6.47;;;5.88;;
25129;SDS011;13308;50.860;13.664;2023-04-23T16:23:53;6.57;;;6.03;;
25129;SDS011;13308;50.860;13.664;2023-04-23T16:26:18;8.35;;;6.45;;
25129;SDS011;13308;50.860;13.664;2023-04-23T16:28:44;5.78;;;5.22;;
25129;SDS011;13308;50.860;13.664;2023-04-23T16:31:10;7.50;;;6.03;;
25129;SDS011;13308;50.860;13.664;2023-04-23T16:33:35;9.63;;;5.88;;
25129;SDS011;13308;50.860;13.664;2023-04-23T16:36:01;7.97;;;6.13;;
25129;SDS011;13308;50.860;13.664;2023-04-23T16:38:26;7.63;;;6.88;;
25129;SDS011;13308;50.860;13.664;2023-04-23T16:40:51;9.23;;;7.18;;
25129;SDS011;13308;50.860;13.664;2023-04-23T16:43:17;7.20;;;5.90;;
25129;SDS011;13308;50.860;13.664;2023-04-23T16:45:42;6.95;;;6.28;;
25129;SDS011;13308;50.860;13.664;2023-04-23T16:48:08;6.88;;;6.18;;
25129;SDS011;13308;50.860;13.664;2023-04-23T16:50:36;7.85;;;7.05;;
25129;SDS011;13308;50.860;13.664;2023-04-23T16:53:02;8.32;;;7.40;;
25129;SDS011;13308;50.860;13.664;2023-04-23T16:55:27;8.63;;;7.72;;
25129;SDS011;13308;50.860;13.664;2023-04-23T16:57:52;9.32;;;8.30;;
25129;SDS011;13308;50.860;13.664;2023-04-23T17:00:18;9.95;;;8.95;;
25129;SDS011;13308;50.860;13.664;2023-04-23T17:02:43;10.60;;;9.18;;
25129;SDS011;13308;50.860;13.664;2023-04-23T17:05:08;12.50;;;9.85;;
25129;SDS011;13308;50.860;13.664;2023-04-23T17:07:34;11.27;;;10.18;;
25129;SDS011;13308;50.860;13.664;2023-04-23T17:10:00;12.40;;;11.05;;
25129;SDS011;13308;50.860;13.664;2023-04-23T17:12:25;13.30;;;11.30;;
25129;SDS011;13308;50.860;13.664;2023-04-23T17:14:50;15.27;;;12.38;;
25129;SDS011;13308;50.860;13.664;2023-04-23T17:17:16;13.52;;;10.70;;
25129;SDS011;13308;50.860;13.664;2023-04-23T17:19:41;11.88;;;10.32;;
25129;SDS011;13308;50.860;13.664;2023-04-23T17:22:07;21.08;;;14.77;;
25129;SDS011;13308;50.860;13.664;2023-04-23T17:24:34;13.05;;;11.63;;
25129;SDS011;13308;50.860;13.664;2023-04-23T17:26:59;14.65;;;11.73;;
25129;SDS011;13308;50.860;13.664;2023-04-23T17:29:25;14.85;;;11.95;;
25129;SDS011;13308;50.860;13.664;2023-04-23T17:31:51;15.52;;;12.27;;
25129;SDS011;13308;50.860;13.664;2023-04-23T17:34:16;13.32;;;11.27;;
25129;SDS011;13308;50.860;13.664;2023-04-23T17:36:41;16.17;;;13.07;;
25129;SDS011;13308;50.860;13.664;2023-04-23T17:39:07;16.48;;;12.25;;
25129;SDS011;13308;50.860;13.664;2023-04-23T17:41:32;13.68;;;11.18;;
25129;SDS011;13308;50.860;13.664;2023-04-23T17:43:58;11.90;;;10.65;;
25129;SDS011;13308;50.860;13.664;2023-04-23T17:46:23;12.20;;;10.15;;
25129;SDS011;13308;50.860;13.664;2023-04-23T17:48:48;10.32;;;9.30;;
25129;SDS011;13308;50.860;13.664;2023-04-23T17:51:14;9.00;;;8.02;;
25129;SDS011;13308;50.860;13.664;2023-04-23T17:53:39;9.00;;;8.10;;
25129;SDS011;13308;50.860;13.664;2023-04-23T17:56:06;8.18;;;7.38;;
25129;SDS011;13308;50.860;13.664;2023-04-23T17:58:31;7.45;;;6.70;;
25129;SDS011;13308;50.860;13.664;2023-04-23T18:00:57;6.50;;;5.70;;
25129;SDS011;13308;50.860;13.664;2023-04-23T18:03:37;5.68;;;5.18;;
25129;SDS011;13308;50.860;13.664;2023-04-23T18:06:03;6.45;;;5.85;;
25129;SDS011;13308;50.860;13.664;2023-04-23T18:08:28;5.30;;;4.80;;
25129;SDS011;13308;50.860;13.664;2023-04-23T18:10:54;12.07;;;7.50;;
25129;SDS011;13308;50.860;13.664;2023-04-23T18:13:19;10.75;;;6.82;;
25129;SDS011;13308;50.860;13.664;2023-04-23T18:15:45;4.68;;;4.28;;
25129;SDS011;13308;50.860;13.664;2023-04-23T18:18:13;4.07;;;3.55;;
25129;SDS011;13308;50.860;13.664;2023-04-23T18:20:40;4.50;;;4.10;;
25129;SDS011;13308;50.860;13.664;2023-04-23T18:23:05;4.97;;;3.42;;
